createdAt,value
2023-06-30T00:00:56.653Z,87.56
2023-06-30T00:03:26.924Z,87.81
2023-06-30T00:05:57.011Z,88.04
2023-06-30T00:08:29.562Z,87.75
2023-06-30T00:10:59.615Z,87.79
2023-06-30T00:13:29.749Z,88.44
2023-06-30T00:16:01.892Z,87.82
2023-06-30T00:18:33.764Z,87.42
2023-06-30T00:21:04.425Z,87.30
2023-06-30T00:23:36.919Z,87.04
2023-06-30T00:26:06.766Z,86.85
2023-06-30T00:28:36.694Z,86.57
2023-06-30T00:31:06.633Z,85.70
2023-06-30T00:33:36.609Z,85.38
2023-06-30T00:36:06.789Z,86.09
2023-06-30T00:38:39.361Z,86.21
2023-06-30T00:41:09.290Z,86.70
2023-06-30T00:43:39.947Z,86.67
2023-06-30T00:46:10.828Z,85.95
2023-06-30T00:48:40.782Z,85.74
2023-06-30T00:51:10.773Z,86.76
2023-06-30T00:53:43.670Z,87.18
2023-06-30T00:56:13.697Z,87.67
2023-06-30T00:58:43.616Z,88.05
2023-06-30T01:01:20.092Z,87.99
2023-06-30T01:03:55.645Z,88.43
2023-06-30T01:06:31.992Z,88.72
2023-06-30T01:09:07.642Z,89.22
2023-06-30T01:11:39.335Z,89.93
2023-06-30T01:14:10.646Z,89.74
2023-06-30T01:16:43.419Z,89.99
2023-06-30T01:19:22.483Z,89.57
2023-06-30T01:21:52.554Z,89.51
2023-06-30T01:24:29.978Z,89.64
2023-06-30T01:27:00.236Z,89.81
2023-06-30T01:29:30.180Z,90.17
2023-06-30T01:32:00.629Z,90.37
2023-06-30T01:34:30.586Z,90.78
2023-06-30T01:37:00.559Z,90.32
2023-06-30T01:39:33.569Z,90.15
2023-06-30T01:42:03.618Z,90.01
2023-06-30T01:44:33.639Z,89.73
2023-06-30T01:47:04.540Z,89.79
2023-06-30T01:49:36.491Z,89.75
2023-06-30T01:52:06.883Z,89.47
2023-06-30T01:54:39.484Z,89.85
2023-06-30T01:57:09.444Z,90.21
2023-06-30T01:59:39.365Z,90.46
2023-06-30T02:02:11.222Z,90.52
2023-06-30T02:04:41.428Z,90.79
2023-06-30T02:07:11.442Z,90.38
2023-06-30T02:09:48.504Z,90.08
2023-06-30T02:12:19.252Z,89.83
2023-06-30T02:14:49.243Z,90.64
2023-06-30T02:17:19.254Z,90.61
2023-06-30T02:19:49.181Z,90.36
2023-06-30T02:22:19.043Z,90.49
2023-06-30T02:24:51.561Z,90.71
2023-06-30T02:27:21.506Z,90.50
2023-06-30T02:29:51.425Z,90.68
2023-06-30T02:32:21.859Z,90.71
2023-06-30T02:34:51.994Z,90.50
2023-06-30T02:37:22.004Z,90.70
2023-06-30T02:39:55.644Z,91.26
2023-06-30T02:42:25.799Z,91.31
2023-06-30T02:44:55.838Z,91.46
2023-06-30T02:47:26.052Z,90.89
2023-06-30T02:49:56.023Z,91.11
2023-06-30T02:52:27.094Z,90.75
2023-06-30T02:55:00.518Z,90.80
2023-06-30T02:57:30.604Z,90.68
2023-06-30T03:00:00.866Z,90.84
2023-06-30T03:02:30.983Z,90.76
2023-06-30T03:05:01.055Z,90.57
2023-06-30T03:07:31.361Z,90.32
2023-06-30T03:10:04.401Z,90.33
2023-06-30T03:12:34.389Z,90.02
2023-06-30T03:15:04.475Z,89.76
2023-06-30T03:17:34.532Z,89.74
2023-06-30T03:20:11.225Z,89.13
2023-06-30T03:22:41.248Z,88.92
2023-06-30T03:25:14.738Z,88.86
2023-06-30T03:27:44.882Z,87.49
2023-06-30T03:30:17.591Z,86.68
2023-06-30T03:32:47.718Z,86.20
2023-06-30T03:35:17.837Z,86.45
2023-06-30T03:37:48.786Z,87.12
2023-06-30T03:40:21.567Z,86.41
2023-06-30T03:42:51.620Z,87.01
2023-06-30T03:45:21.760Z,87.12
2023-06-30T03:47:51.916Z,86.87
2023-06-30T03:50:22.334Z,86.63
2023-06-30T03:52:52.359Z,86.02
2023-06-30T03:55:25.056Z,86.34
2023-06-30T03:57:54.961Z,86.76
2023-06-30T04:00:25.313Z,87.12
2023-06-30T04:02:55.355Z,87.20
2023-06-30T04:05:25.393Z,87.41
2023-06-30T04:07:55.973Z,86.99
2023-06-30T04:10:28.683Z,85.88
2023-06-30T04:12:58.835Z,86.86
2023-06-30T04:15:28.825Z,86.43
2023-06-30T04:17:58.810Z,86.36
2023-06-30T04:20:29.308Z,86.49
2023-06-30T04:23:06.486Z,85.88
2023-06-30T04:25:40.762Z,84.82
2023-06-30T04:28:10.690Z,85.53
2023-06-30T04:30:41.489Z,84.54
2023-06-30T04:33:11.367Z,83.99
2023-06-30T04:35:45.910Z,83.87
2023-06-30T04:38:16.196Z,84.23
2023-06-30T04:40:49.130Z,83.11
2023-06-30T04:43:19.185Z,82.94
2023-06-30T04:45:49.246Z,82.82
2023-06-30T04:48:19.397Z,82.03
2023-06-30T04:50:49.394Z,82.40
2023-06-30T04:53:19.302Z,82.37
2023-06-30T04:55:51.823Z,81.95
2023-06-30T04:58:23.133Z,81.16
2023-06-30T05:00:53.283Z,81.06
2023-06-30T05:03:23.461Z,80.66
2023-06-30T05:05:54.491Z,81.22
2023-06-30T05:08:25.478Z,80.56
2023-06-30T05:10:58.194Z,80.36
2023-06-30T05:13:32.070Z,79.33
2023-06-30T05:16:02.088Z,79.43
2023-06-30T05:18:32.364Z,79.41
2023-06-30T05:21:05.397Z,78.79
2023-06-30T05:23:35.506Z,79.44
2023-06-30T05:26:10.417Z,78.64
2023-06-30T05:28:43.158Z,78.99
2023-06-30T05:31:17.191Z,79.02
2023-06-30T05:33:49.475Z,79.37
2023-06-30T05:36:21.788Z,79.16
2023-06-30T05:38:51.746Z,78.17
2023-06-30T05:41:24.324Z,76.48
2023-06-30T05:43:54.588Z,76.97
2023-06-30T05:46:26.240Z,76.63
2023-06-30T05:48:56.324Z,77.57
2023-06-30T05:51:26.290Z,78.28
2023-06-30T05:53:56.273Z,78.13
2023-06-30T05:56:28.953Z,78.31
2023-06-30T05:58:59.890Z,78.95
2023-06-30T06:01:30.023Z,79.08
2023-06-30T06:04:01.100Z,78.73
2023-06-30T06:06:34.606Z,78.35
2023-06-30T06:09:04.830Z,78.36
2023-06-30T06:11:37.960Z,76.88
2023-06-30T06:14:07.864Z,77.14
2023-06-30T06:16:39.981Z,77.15
2023-06-30T06:19:10.008Z,77.51
2023-06-30T06:21:40.267Z,77.72
2023-06-30T06:24:11.161Z,77.53
2023-06-30T06:26:44.875Z,77.05
2023-06-30T06:29:20.365Z,76.53
2023-06-30T06:31:50.533Z,76.25
2023-06-30T06:34:21.856Z,76.06
2023-06-30T06:36:52.217Z,75.82
2023-06-30T06:39:23.186Z,75.54
2023-06-30T06:41:55.830Z,74.17
2023-06-30T06:44:26.288Z,75.11
2023-06-30T06:47:34.745Z,74.52
2023-06-30T06:50:05.668Z,74.23
2023-06-30T06:52:36.150Z,73.34
2023-06-30T06:55:06.508Z,71.86
2023-06-30T06:57:41.459Z,69.33
2023-06-30T07:00:12.625Z,70.54
2023-06-30T07:02:42.730Z,70.73
2023-06-30T07:05:14.166Z,70.06
2023-06-30T07:07:44.214Z,68.17
2023-06-30T07:10:14.836Z,67.41
2023-06-30T07:12:47.489Z,67.04
2023-06-30T07:15:17.645Z,66.25
2023-06-30T07:17:49.778Z,65.22
2023-06-30T07:20:20.103Z,64.48
2023-06-30T07:22:50.800Z,63.95
2023-06-30T07:25:20.795Z,63.45
2023-06-30T07:27:58.387Z,61.55
2023-06-30T07:30:31.375Z,61.69
2023-06-30T07:33:01.879Z,61.00
2023-06-30T07:35:32.240Z,61.35
2023-06-30T07:38:04.805Z,61.55
2023-06-30T07:40:50.286Z,60.32
2023-06-30T07:43:28.414Z,60.06
2023-06-30T07:45:58.479Z,58.34
2023-06-30T07:48:28.538Z,59.29
2023-06-30T07:51:08.508Z,56.14
2023-06-30T07:53:40.190Z,56.19
2023-06-30T07:56:10.309Z,54.34
2023-06-30T07:58:42.860Z,52.79
2023-06-30T08:01:12.893Z,50.87
2023-06-30T08:03:42.894Z,51.99
2023-06-30T08:06:13.147Z,51.60
2023-06-30T08:08:43.287Z,49.85
2023-06-30T08:11:15.628Z,48.69
2023-06-30T08:13:48.191Z,48.68
2023-06-30T08:16:20.251Z,49.79
2023-06-30T08:18:52.001Z,50.34
2023-06-30T08:21:22.365Z,48.54
2023-06-30T08:23:53.439Z,47.36
2023-06-30T08:26:23.365Z,47.79
2023-06-30T08:28:56.798Z,45.57
2023-06-30T08:31:26.885Z,46.06
2023-06-30T08:33:57.179Z,47.31
2023-06-30T08:36:27.159Z,47.83
2023-06-30T08:38:57.142Z,46.32
2023-06-30T08:41:29.540Z,45.42
2023-06-30T08:44:03.183Z,44.41
2023-06-30T08:46:37.312Z,44.73
2023-06-30T08:49:08.049Z,46.17
2023-06-30T08:51:41.227Z,45.34
2023-06-30T08:54:13.996Z,42.94
2023-06-30T08:56:44.304Z,44.98
2023-06-30T08:59:16.815Z,43.90
2023-06-30T09:01:48.325Z,44.65
2023-06-30T09:04:18.703Z,43.80
2023-06-30T09:06:52.273Z,44.38
2023-06-30T09:09:29.309Z,43.63
2023-06-30T09:12:03.089Z,42.45
2023-06-30T09:14:38.305Z,42.87
2023-06-30T09:17:09.255Z,41.74
2023-06-30T09:19:39.202Z,43.23
2023-06-30T09:22:55.222Z,41.36
2023-06-30T09:25:00.575Z,41.88
2023-06-30T09:27:40.862Z,39.44
2023-06-30T09:30:15.251Z,40.19
2023-06-30T09:32:46.641Z,40.90
2023-06-30T09:35:18.814Z,42.63
2023-06-30T09:37:48.949Z,42.43
2023-06-30T09:40:19.430Z,42.15
2023-06-30T09:42:55.768Z,42.50
2023-06-30T09:45:28.304Z,40.67
2023-06-30T09:47:58.549Z,41.23
2023-06-30T09:50:28.885Z,42.13
2023-06-30T09:52:59.093Z,40.97
2023-06-30T09:55:29.093Z,40.94
2023-06-30T09:57:59.867Z,40.81
2023-06-30T10:00:36.467Z,40.47
2023-06-30T10:03:12.845Z,38.28
2023-06-30T10:05:44.381Z,38.36
2023-06-30T10:08:16.999Z,38.04
2023-06-30T10:10:47.650Z,37.51
2023-06-30T10:13:19.552Z,36.63
2023-06-30T10:15:52.620Z,36.92
2023-06-30T10:18:23.869Z,38.64
2023-06-30T10:20:53.974Z,38.42
2023-06-30T10:23:26.823Z,38.09
2023-06-30T10:25:58.961Z,36.95
2023-06-30T10:28:29.021Z,38.66
2023-06-30T10:31:01.604Z,38.86
2023-06-30T10:33:31.545Z,38.11
2023-06-30T10:36:03.180Z,38.51
2023-06-30T10:38:33.478Z,38.41
2023-06-30T10:41:18.728Z,38.11
2023-06-30T10:44:10.834Z,37.99
2023-06-30T10:47:07.615Z,37.22
2023-06-30T10:49:38.964Z,38.47
2023-06-30T10:52:15.447Z,36.64
2023-06-30T10:54:49.031Z,38.51
2023-06-30T10:57:23.069Z,37.49
2023-06-30T11:00:08.706Z,36.33
2023-06-30T11:02:49.970Z,37.43
2023-06-30T11:05:25.297Z,36.76
2023-06-30T11:07:56.520Z,37.93
2023-06-30T11:10:40.078Z,39.03
2023-06-30T11:13:11.379Z,38.60
2023-06-30T11:15:44.884Z,39.01
2023-06-30T11:18:19.088Z,38.66
2023-06-30T11:21:06.417Z,38.65
2023-06-30T11:23:37.828Z,38.22
2023-06-30T11:26:18.687Z,37.98
2023-06-30T11:28:51.337Z,38.91
2023-06-30T11:31:21.571Z,38.89
2023-06-30T11:33:55.521Z,38.51
2023-06-30T11:36:25.634Z,38.27
2023-06-30T11:38:55.775Z,38.18
2023-06-30T11:41:26.207Z,38.93
2023-06-30T11:43:57.637Z,38.41
2023-06-30T11:46:29.077Z,38.24
2023-06-30T11:49:02.085Z,38.90
2023-06-30T11:51:32.883Z,38.86
2023-06-30T11:54:02.810Z,37.95
2023-06-30T11:56:32.690Z,37.84
2023-06-30T11:59:02.637Z,37.65
2023-06-30T12:01:32.638Z,37.91
2023-06-30T12:04:38.442Z,36.25
2023-06-30T12:07:08.675Z,37.97
2023-06-30T12:09:39.052Z,36.85
2023-06-30T12:12:09.850Z,37.17
2023-06-30T12:14:44.590Z,36.69
2023-06-30T12:17:14.508Z,37.30
2023-06-30T12:19:49.098Z,36.83
2023-06-30T12:22:28.663Z,35.39
2023-06-30T12:24:59.447Z,36.59
2023-06-30T12:27:32.761Z,35.23
2023-06-30T12:30:03.227Z,36.72
2023-06-30T12:32:34.662Z,37.62
2023-06-30T12:35:08.863Z,37.64
2023-06-30T12:37:42.089Z,37.11
2023-06-30T12:40:13.065Z,37.71
2023-06-30T12:42:42.987Z,37.57
2023-06-30T12:45:13.643Z,37.76
2023-06-30T12:47:43.691Z,37.32
2023-06-30T12:50:16.643Z,36.02
2023-06-30T12:52:46.918Z,35.95
2023-06-30T12:55:18.560Z,36.25
2023-06-30T12:57:48.869Z,35.85
2023-06-30T13:00:19.890Z,34.85
2023-06-30T13:02:49.786Z,35.22
2023-06-30T13:05:22.494Z,35.70
2023-06-30T13:07:52.349Z,36.13
2023-06-30T13:10:22.280Z,34.61
2023-06-30T13:12:53.921Z,36.68
2023-06-30T13:15:23.938Z,34.98
2023-06-30T13:17:53.865Z,35.54
2023-06-30T13:20:26.614Z,34.95
2023-06-30T13:23:10.557Z,35.47
2023-06-30T13:25:44.926Z,35.54
2023-06-30T13:28:15.181Z,36.07
2023-06-30T13:30:45.206Z,34.83
2023-06-30T13:33:15.267Z,34.11
2023-06-30T13:35:47.920Z,35.49
2023-06-30T13:38:19.412Z,35.41
2023-06-30T13:40:49.432Z,35.68
2023-06-30T13:43:19.362Z,35.28
2023-06-30T13:45:49.524Z,35.84
2023-06-30T13:48:19.443Z,34.32
2023-06-30T13:50:51.964Z,33.86
2023-06-30T13:53:23.278Z,34.25
2023-06-30T13:55:53.955Z,33.77
2023-06-30T13:58:23.892Z,34.91
2023-06-30T14:00:53.891Z,36.31
2023-06-30T14:03:23.866Z,35.12
2023-06-30T14:05:56.504Z,34.54
2023-06-30T14:08:26.642Z,34.96
2023-06-30T14:10:57.654Z,34.85
2023-06-30T14:13:29.880Z,34.46
2023-06-30T14:15:59.853Z,34.84
2023-06-30T14:18:29.723Z,35.23
2023-06-30T14:21:02.786Z,34.17
2023-06-30T14:23:32.894Z,34.57
2023-06-30T14:26:03.354Z,35.01
2023-06-30T14:28:33.294Z,35.02
2023-06-30T14:31:03.311Z,35.12
2023-06-30T14:33:33.320Z,34.62
2023-06-30T14:36:06.445Z,34.71
2023-06-30T14:38:37.382Z,35.09
2023-06-30T14:41:07.448Z,34.97
2023-06-30T14:43:37.348Z,34.82
2023-06-30T14:46:07.634Z,35.60
2023-06-30T14:48:37.600Z,35.24
2023-06-30T14:51:10.109Z,34.31
2023-06-30T14:53:40.046Z,34.11
2023-06-30T14:56:10.838Z,34.91
2023-06-30T14:58:40.798Z,34.23
2023-06-30T15:01:10.665Z,33.72
2023-06-30T15:03:41.329Z,33.40
2023-06-30T15:06:13.853Z,32.92
2023-06-30T15:08:44.074Z,33.30
2023-06-30T15:11:13.999Z,32.67
2023-06-30T15:13:43.917Z,33.21
2023-06-30T15:16:13.813Z,33.88
2023-06-30T15:18:43.779Z,34.06
2023-06-30T15:21:16.618Z,33.35
2023-06-30T15:23:46.610Z,34.23
2023-06-30T15:26:16.495Z,33.19
2023-06-30T15:28:46.381Z,33.56
2023-06-30T15:31:16.346Z,33.90
2023-06-30T15:33:46.678Z,33.74
2023-06-30T15:36:19.332Z,33.84
2023-06-30T15:38:49.222Z,34.11
2023-06-30T15:41:23.103Z,32.92
2023-06-30T15:43:54.381Z,33.37
2023-06-30T15:46:24.365Z,33.47
2023-06-30T15:48:54.250Z,34.38
2023-06-30T15:51:26.922Z,33.90
2023-06-30T15:53:56.864Z,34.82
2023-06-30T15:56:26.707Z,35.35
2023-06-30T15:58:56.683Z,35.49
2023-06-30T16:01:26.668Z,34.80
2023-06-30T16:03:56.672Z,34.79
2023-06-30T16:06:29.282Z,35.10
2023-06-30T16:08:59.207Z,35.79
2023-06-30T16:11:29.200Z,36.39
2023-06-30T16:14:01.864Z,35.07
2023-06-30T16:16:31.883Z,35.85
2023-06-30T16:19:03.360Z,36.25
2023-06-30T16:21:35.966Z,35.79
2023-06-30T16:24:05.867Z,35.64
2023-06-30T16:26:38.064Z,36.18
2023-06-30T16:29:08.003Z,36.83
2023-06-30T16:31:37.893Z,35.36
2023-06-30T16:34:08.139Z,35.92
2023-06-30T16:36:41.218Z,35.72
2023-06-30T16:39:11.171Z,35.96
2023-06-30T16:41:41.170Z,36.07
2023-06-30T16:44:11.141Z,35.91
2023-06-30T16:46:41.292Z,36.52
2023-06-30T16:49:12.554Z,37.12
2023-06-30T16:51:45.218Z,37.02
2023-06-30T16:54:15.300Z,37.84
2023-06-30T16:56:45.267Z,37.44
2023-06-30T16:59:15.231Z,37.45
2023-06-30T17:01:45.499Z,37.46
2023-06-30T17:04:25.918Z,37.49
2023-06-30T17:06:58.550Z,37.53
2023-06-30T17:09:28.461Z,37.80
2023-06-30T17:11:58.606Z,37.99
2023-06-30T17:14:28.572Z,37.75
2023-06-30T17:16:58.590Z,37.85
2023-06-30T17:19:28.909Z,38.20
2023-06-30T17:22:02.544Z,38.23
2023-06-30T17:24:34.861Z,37.46
2023-06-30T17:27:04.769Z,37.84
2023-06-30T17:29:34.728Z,37.91
2023-06-30T17:32:05.210Z,38.38
2023-06-30T17:34:35.131Z,38.82
2023-06-30T17:37:10.892Z,38.67
2023-06-30T17:39:40.845Z,39.36
2023-06-30T17:42:11.500Z,39.62
2023-06-30T17:44:42.783Z,39.27
2023-06-30T17:47:13.122Z,39.67
2023-06-30T17:49:44.072Z,39.95
2023-06-30T17:52:17.275Z,39.16
2023-06-30T17:54:47.327Z,39.72
2023-06-30T17:57:17.540Z,40.61
2023-06-30T17:59:47.411Z,40.33
2023-06-30T18:02:17.997Z,40.46
2023-06-30T18:04:48.511Z,40.67
2023-06-30T18:07:21.071Z,39.84
2023-06-30T18:09:51.291Z,40.72
2023-06-30T18:12:21.201Z,40.26
2023-06-30T18:14:51.118Z,40.87
2023-06-30T18:17:21.155Z,40.46
2023-06-30T18:19:51.151Z,40.76
2023-06-30T18:22:26.829Z,41.05
2023-06-30T18:24:56.768Z,41.88
2023-06-30T18:27:26.656Z,41.78
2023-06-30T18:29:56.499Z,41.57
2023-06-30T18:32:26.855Z,42.28
2023-06-30T18:34:57.020Z,41.95
2023-06-30T18:37:30.495Z,42.76
2023-06-30T18:40:00.455Z,42.30
2023-06-30T18:42:30.486Z,42.40
2023-06-30T18:45:00.551Z,42.30
2023-06-30T18:47:30.542Z,42.98
2023-06-30T18:50:00.655Z,42.61
2023-06-30T18:52:33.196Z,42.25
2023-06-30T18:55:03.395Z,42.85
2023-06-30T18:57:34.778Z,43.26
2023-06-30T19:00:04.761Z,42.80
2023-06-30T19:02:34.837Z,43.00
2023-06-30T19:05:05.024Z,43.26
2023-06-30T19:07:37.839Z,43.48
2023-06-30T19:10:08.882Z,43.84
2023-06-30T19:12:38.863Z,43.28
2023-06-30T19:15:10.548Z,43.67
2023-06-30T19:17:40.465Z,43.81
2023-06-30T19:20:11.264Z,43.77
2023-06-30T19:22:44.060Z,44.20
2023-06-30T19:25:14.227Z,44.35
2023-06-30T19:27:44.457Z,44.44
2023-06-30T19:30:15.679Z,45.06
2023-06-30T19:32:45.610Z,45.50
2023-06-30T19:35:15.645Z,45.43
2023-06-30T19:37:48.155Z,45.79
2023-06-30T19:40:19.017Z,46.38
2023-06-30T19:42:49.043Z,46.50
2023-06-30T19:45:18.969Z,46.39
2023-06-30T19:47:49.366Z,46.88
2023-06-30T19:50:24.186Z,47.00
2023-06-30T19:52:56.956Z,47.23
2023-06-30T19:55:26.911Z,47.45
2023-06-30T19:57:58.271Z,47.77
2023-06-30T20:00:28.167Z,48.35
2023-06-30T20:02:58.117Z,48.23
2023-06-30T20:05:28.444Z,49.03
2023-06-30T20:08:03.589Z,48.89
2023-06-30T20:10:33.507Z,49.20
2023-06-30T20:13:05.450Z,49.54
2023-06-30T20:15:36.124Z,49.33
2023-06-30T20:18:06.092Z,49.67
2023-06-30T20:20:36.048Z,49.46
2023-06-30T20:23:08.592Z,49.88
2023-06-30T20:25:38.535Z,49.92
2023-06-30T20:28:08.589Z,49.83
2023-06-30T20:30:39.369Z,50.42
2023-06-30T20:33:09.375Z,50.13
2023-06-30T20:35:39.309Z,50.50
2023-06-30T20:38:11.974Z,50.62
2023-06-30T20:40:41.943Z,50.70
2023-06-30T20:43:11.826Z,50.60
2023-06-30T20:45:41.801Z,50.65
2023-06-30T20:48:12.324Z,50.79
2023-06-30T20:50:42.221Z,50.87
2023-06-30T20:53:14.715Z,51.19
2023-06-30T20:55:44.792Z,51.56
2023-06-30T20:58:14.714Z,51.71
2023-06-30T21:00:44.821Z,51.84
2023-06-30T21:03:15.037Z,51.85
2023-06-30T21:05:45.191Z,52.19
2023-06-30T21:08:17.842Z,51.87
2023-06-30T21:10:47.897Z,51.65
2023-06-30T21:13:18.284Z,52.05
2023-06-30T21:15:48.248Z,52.13
2023-06-30T21:18:18.488Z,52.24
2023-06-30T21:20:48.682Z,52.42
2023-06-30T21:23:21.504Z,52.30
2023-06-30T21:25:51.404Z,52.57
2023-06-30T21:28:21.398Z,53.28
2023-06-30T21:30:51.407Z,52.84
2023-06-30T21:33:21.874Z,52.78
2023-06-30T21:35:51.917Z,53.15
2023-06-30T21:38:27.227Z,53.61
2023-06-30T21:40:57.286Z,53.63
2023-06-30T21:43:27.212Z,53.77
2023-06-30T21:46:01.715Z,54.00
2023-06-30T21:48:31.751Z,54.04
2023-06-30T21:51:01.699Z,54.42
2023-06-30T21:53:34.214Z,54.67
2023-06-30T21:56:04.321Z,55.06
2023-06-30T21:58:34.303Z,54.95
2023-06-30T22:01:04.522Z,55.50
2023-06-30T22:03:37.912Z,55.34
2023-06-30T22:06:08.080Z,55.81
2023-06-30T22:08:40.565Z,55.43
2023-06-30T22:11:11.321Z,55.63
2023-06-30T22:13:41.346Z,56.27
2023-06-30T22:16:11.561Z,56.19
2023-06-30T22:18:42.406Z,56.38
2023-06-30T22:21:12.302Z,56.53
2023-06-30T22:23:45.700Z,57.00
2023-06-30T22:26:16.797Z,57.31
2023-06-30T22:28:48.231Z,57.32
2023-06-30T22:31:18.241Z,57.04
2023-06-30T22:33:48.328Z,57.16
2023-06-30T22:36:18.148Z,57.59
2023-06-30T22:38:51.100Z,57.98
2023-06-30T22:41:21.086Z,57.68
2023-06-30T22:43:52.661Z,58.02
2023-06-30T22:46:22.579Z,58.10
2023-06-30T22:48:52.483Z,58.85
2023-06-30T22:51:23.982Z,58.36
2023-06-30T22:53:57.003Z,58.64
2023-06-30T22:56:27.026Z,58.18
2023-06-30T22:58:57.035Z,58.65
2023-06-30T23:01:26.880Z,59.09
2023-06-30T23:03:56.887Z,59.66
2023-06-30T23:06:26.900Z,59.09
2023-06-30T23:08:59.460Z,59.81
2023-06-30T23:11:29.346Z,59.43
2023-06-30T23:13:59.523Z,59.39
2023-06-30T23:16:29.427Z,59.70
2023-06-30T23:18:59.565Z,60.04
2023-06-30T23:21:29.457Z,59.57
2023-06-30T23:24:02.024Z,59.53
2023-06-30T23:26:31.986Z,59.60
2023-06-30T23:29:01.855Z,59.93
2023-06-30T23:31:34.295Z,59.35
2023-06-30T23:34:05.936Z,59.71
2023-06-30T23:36:36.528Z,59.65
2023-06-30T23:39:09.038Z,59.64
2023-06-30T23:41:39.309Z,60.26
2023-06-30T23:44:09.200Z,60.14
2023-06-30T23:46:39.380Z,60.44
2023-06-30T23:49:09.280Z,60.06
2023-06-30T23:51:39.160Z,60.12
2023-06-30T23:54:11.684Z,60.76
2023-06-30T23:56:41.571Z,60.71
2023-06-30T23:59:11.702Z,60.46
